Time;durP1;ratioP1;P1;durP2;ratioP2;P2;SDS_P1;SDS_P2;PMS_P1;PMS_P2;Temp;Humidity;BMP_temperature;BMP_pressure;BME280_temperature;BME280_humidity;BME280_pressure;Samples;Min_cycle;Max_cycle;Signal;HPM_P1;HPM_P2
2023/10/27 00:00:07;;;;;;;7.82;3.60;;;;;;;14.99;94.35;98870.69;5097843;28;20047;-63
2023/10/27 00:02:38;;;;;;;6.32;3.50;;;;;;;15.07;93.97;98870.47;5097889;28;20028;-63
2023/10/27 00:05:04;;;;;;;5.85;3.72;;;;;;;14.85;87.42;98879.78;5098418;28;20062;-63
2023/10/27 00:07:30;;;;;;;7.15;3.78;;;;;;;14.97;89.87;98870.91;5099091;28;20040;-64
2023/10/27 00:09:55;;;;;;;9.52;4.10;;;;;;;15.01;88.54;98857.97;5098439;28;20035;-63
2023/10/27 00:12:20;;;;;;;9.65;3.90;;;;;;;15.05;88.23;98863.69;5097244;28;20107;-64
2023/10/27 00:14:46;;;;;;;7.72;3.55;;;;;;;15.06;87.77;98874.16;5096590;28;20036;-63
2023/10/27 00:17:11;;;;;;;8.85;3.60;;;;;;;15.02;88.45;98864.94;5097303;28;20047;-63
2023/10/27 00:19:37;;;;;;;7.82;3.80;;;;;;;14.96;89.11;98861.28;5098374;28;20047;-63
2023/10/27 00:22:02;;;;;;;7.03;3.78;;;;;;;14.75;86.01;98863.41;5097103;28;20028;-63
2023/10/27 00:24:28;;;;;;;6.68;3.63;;;;;;;14.56;85.87;98860.56;5098235;28;20062;-63
2023/10/27 00:26:53;;;;;;;8.55;4.07;;;;;;;14.42;88.29;98861.63;5095455;28;20058;-63
2023/10/27 00:29:18;;;;;;;8.82;4.20;;;;;;;14.52;90.45;98866.53;5098183;28;20067;-63
2023/10/27 00:31:44;;;;;;;7.57;3.65;;;;;;;14.60;91.35;98869.81;5101436;28;20035;-63
2023/10/27 00:34:09;;;;;;;6.68;3.72;;;;;;;14.56;91.11;98863.22;5099480;28;20343;-63
2023/10/27 00:36:35;;;;;;;8.85;3.90;;;;;;;14.55;93.11;98856.25;5101374;28;20089;-62
2023/10/27 00:39:00;;;;;;;6.55;4.15;;;;;;;14.67;94.99;98873.28;5100842;28;20049;-63
2023/10/27 00:41:25;;;;;;;7.43;4.22;;;;;;;14.69;94.95;98873.88;5101089;28;20040;-63
2023/10/27 00:43:51;;;;;;;7.75;4.38;;;;;;;14.63;96.86;98871.22;5101412;28;20101;-63
2023/10/27 00:46:16;;;;;;;15.32;5.38;;;;;;;14.67;97.83;98883.13;5099195;28;20040;-63
2023/10/27 00:48:42;;;;;;;8.85;4.20;;;;;;;14.75;98.75;98882.88;5101921;28;20051;-64
2023/10/27 00:51:09;;;;;;;8.77;4.80;;;;;;;14.83;98.54;98879.16;5102368;28;20043;-63
2023/10/27 00:53:35;;;;;;;9.60;4.63;;;;;;;14.86;97.68;98879.56;5100956;28;20039;-62
2023/10/27 00:56:01;;;;;;;7.82;4.45;;;;;;;14.83;99.08;98879.97;5100141;28;20268;-63
2023/10/27 00:58:27;;;;;;;11.07;4.40;;;;;;;14.78;99.88;98882.47;5102014;28;20039;-63
2023/10/27 01:00:56;;;;;;;11.43;4.20;;;;;;;14.82;100.00;98885.53;5099425;28;20044;-63
2023/10/27 01:03:22;;;;;;;10.40;4.40;;;;;;;14.86;100.00;98871.56;5102271;28;20044;-64
2023/10/27 01:05:48;;;;;;;9.63;4.30;;;;;;;14.98;100.00;98875.22;5102799;28;20031;-63
2023/10/27 01:08:13;;;;;;;8.25;4.07;;;;;;;15.07;100.00;98875.78;5100416;28;20044;-64
2023/10/27 01:10:39;;;;;;;9.70;3.80;;;;;;;15.04;100.00;98872.72;5099642;28;20047;-64
2023/10/27 01:13:05;;;;;;;8.68;4.32;;;;;;;15.08;100.00;98866.75;5100882;28;20031;-64
2023/10/27 01:15:30;;;;;;;8.20;4.50;;;;;;;15.01;100.00;98873.97;5101685;28;20032;-64
2023/10/27 01:17:56;;;;;;;7.95;4.05;;;;;;;15.14;100.00;98862.44;5099681;28;20043;-63
2023/10/27 01:20:22;;;;;;;8.05;3.80;;;;;;;15.13;100.00;98856.28;5100815;28;20091;-64
2023/10/27 01:22:48;;;;;;;6.20;4.03;;;;;;;15.06;100.00;98852.81;5100536;28;20481;-64
2023/10/27 01:25:15;;;;;;;13.27;4.45;;;;;;;15.00;100.00;98841.16;5100612;28;20031;-64
2023/10/27 01:27:41;;;;;;;11.90;4.65;;;;;;;14.88;100.00;98850.03;5099600;28;20036;-64
2023/10/27 01:30:08;;;;;;;8.80;4.60;;;;;;;15.01;100.00;98864.13;5101210;28;20372;-63
2023/10/27 01:32:35;;;;;;;9.23;3.97;;;;;;;15.00;100.00;98870.50;5097988;28;20028;-64
2023/10/27 01:35:00;;;;;;;10.70;4.93;;;;;;;15.01;100.00;98871.31;5101404;28;20256;-63
2023/10/27 01:37:26;;;;;;;11.80;4.82;;;;;;;14.88;100.00;98864.19;5100134;28;20048;-64
2023/10/27 01:39:51;;;;;;;10.43;4.45;;;;;;;14.97;100.00;98878.09;5101089;28;20051;-64
2023/10/27 01:42:17;;;;;;;10.90;4.65;;;;;;;14.88;100.00;98871.34;5098036;28;20032;-65
2023/10/27 01:44:42;;;;;;;8.25;4.47;;;;;;;14.80;100.00;98874.25;5082608;28;20044;-64
2023/10/27 01:47:07;;;;;;;9.55;4.63;;;;;;;14.89;100.00;98870.31;5099451;28;20039;-64
2023/10/27 01:49:33;;;;;;;12.52;4.18;;;;;;;14.84;100.00;98865.63;5115986;27;20333;-64
2023/10/27 01:51:58;;;;;;;10.60;4.75;;;;;;;14.86;100.00;98863.56;5100618;28;20099;-64
2023/10/27 01:54:24;;;;;;;9.88;4.65;;;;;;;15.00;100.00;98869.66;5099431;28;20047;-64
2023/10/27 01:56:49;;;;;;;12.82;4.40;;;;;;;15.06;100.00;98868.81;5100444;28;20036;-64
2023/10/27 01:59:15;;;;;;;10.75;4.78;;;;;;;15.03;100.00;98863.91;5099382;28;20026;-64
2023/10/27 02:01:40;;;;;;;10.38;4.50;;;;;;;14.93;100.00;98855.56;5099411;28;20036;-64
2023/10/27 02:04:05;;;;;;;9.73;4.25;;;;;;;14.75;100.00;98839.44;5099938;28;20036;-64
2023/10/27 02:06:31;;;;;;;11.23;4.82;;;;;;;14.47;100.00;98859.16;5099261;28;20244;-64
2023/10/27 02:08:56;;;;;;;12.15;4.80;;;;;;;14.56;100.00;98865.91;5098324;28;20050;-63
2023/10/27 02:11:23;;;;;;;14.40;4.32;;;;;;;14.71;100.00;98868.34;5100735;28;20035;-64
2023/10/27 02:13:49;;;;;;;9.18;5.05;;;;;;;14.72;100.00;98877.97;5082791;28;20044;-63
2023/10/27 02:16:14;;;;;;;10.25;4.88;;;;;;;14.75;100.00;98884.72;5100659;28;20091;-63
2023/10/27 02:18:40;;;;;;;12.57;4.80;;;;;;;14.57;100.00;98878.22;5099032;28;20391;-63
2023/10/27 02:21:05;;;;;;;11.43;5.15;;;;;;;14.72;100.00;98877.97;5099306;28;20046;-63
2023/10/27 02:23:31;;;;;;;11.13;4.75;;;;;;;14.82;100.00;98891.69;5099867;28;20046;-62
2023/10/27 02:25:56;;;;;;;9.55;4.45;;;;;;;14.83;100.00;98903.16;5100117;28;20317;-62
2023/10/27 02:28:21;;;;;;;8.82;4.28;;;;;;;14.93;100.00;98896.34;5099330;28;20044;-63
2023/10/27 02:30:47;;;;;;;10.13;4.47;;;;;;;15.05;100.00;98880.50;5099478;28;20035;-63
2023/10/27 02:33:13;;;;;;;8.10;4.63;;;;;;;14.98;100.00;98877.06;5098121;28;20027;-62
2023/10/27 02:35:38;;;;;;;12.32;4.25;;;;;;;14.62;99.76;98882.91;5099407;28;20178;-62
2023/10/27 02:38:04;;;;;;;10.85;4.60;;;;;;;14.71;100.00;98883.50;5099263;28;20081;-63
2023/10/27 02:40:30;;;;;;;9.02;4.38;;;;;;;14.83;100.00;98889.81;5100072;28;20034;-62
2023/10/27 02:42:56;;;;;;;9.43;4.40;;;;;;;14.88;100.00;98888.16;5098362;28;20044;-63
2023/10/27 02:45:21;;;;;;;9.23;4.13;;;;;;;14.91;100.00;98884.25;5099403;28;20043;-62
2023/10/27 02:47:47;;;;;;;12.88;4.78;;;;;;;14.92;100.00;98872.56;5096979;28;20032;-63
2023/10/27 02:50:13;;;;;;;6.47;3.60;;;;;;;14.98;100.00;98872.53;5098646;28;20039;-62
2023/10/27 02:52:38;;;;;;;8.55;3.72;;;;;;;14.99;99.57;98876.84;5098162;28;20096;-62
2023/10/27 02:55:04;;;;;;;8.32;3.80;;;;;;;14.75;98.34;98874.88;5098232;28;20096;-62
2023/10/27 02:57:30;;;;;;;8.20;3.80;;;;;;;14.52;99.53;98871.84;5098830;28;20046;-62
2023/10/27 02:59:57;;;;;;;9.85;4.07;;;;;;;14.47;100.00;98859.16;5097665;28;20166;-62
2023/10/27 03:02:23;;;;;;;8.75;4.82;;;;;;;14.58;99.50;98861.22;5099960;28;20138;-63
2023/10/27 03:04:49;;;;;;;9.68;4.07;;;;;;;14.66;98.34;98863.63;5097254;28;20048;-63
2023/10/27 03:07:15;;;;;;;8.07;4.70;;;;;;;14.74;97.00;98856.44;5098513;28;20032;-63
2023/10/27 03:09:41;;;;;;;12.43;4.05;;;;;;;14.74;98.02;98862.59;5098900;28;20039;-62
2023/10/27 03:12:07;;;;;;;7.90;4.32;;;;;;;14.76;98.57;98865.88;5113643;28;20249;-63
2023/10/27 03:14:32;;;;;;;9.50;4.05;;;;;;;14.84;99.46;98859.47;5098173;28;20034;-63
2023/10/27 03:16:58;;;;;;;8.25;4.20;;;;;;;14.89;99.17;98862.34;5098180;28;20037;-62
2023/10/27 03:19:23;;;;;;;7.55;3.97;;;;;;;14.94;99.23;98862.50;5099019;28;20039;-62
2023/10/27 03:21:49;;;;;;;7.57;4.00;;;;;;;14.88;98.13;98871.34;5098388;28;20036;-63
2023/10/27 03:24:14;;;;;;;8.23;3.58;;;;;;;14.85;96.75;98880.59;5099212;28;20028;-62
2023/10/27 03:26:40;;;;;;;8.55;4.25;;;;;;;14.67;96.69;98880.44;5096930;28;20232;-63
2023/10/27 03:29:05;;;;;;;7.13;3.92;;;;;;;14.72;96.75;98861.97;5099871;28;20043;-63
2023/10/27 03:31:31;;;;;;;9.82;4.80;;;;;;;14.79;97.26;98868.09;5097243;28;20040;-63
2023/10/27 03:33:56;;;;;;;9.32;4.72;;;;;;;14.85;97.67;98880.59;5099642;28;20067;-63
2023/10/27 03:36:22;;;;;;;8.85;4.28;;;;;;;14.87;98.32;98873.22;5096986;28;20036;-62
2023/10/27 03:38:48;;;;;;;6.97;4.50;;;;;;;14.87;98.01;98875.88;5099802;28;20143;-62
2023/10/27 03:41:13;;;;;;;11.77;4.82;;;;;;;14.92;97.75;98868.06;5099465;28;20443;-66
2023/10/27 03:43:39;;;;;;;13.30;5.07;;;;;;;14.87;96.63;98865.22;5098467;28;20334;-63
2023/10/27 03:46:07;;;;;;;11.07;4.60;;;;;;;14.86;97.74;98866.25;5099252;28;20035;-63
2023/10/27 03:48:34;;;;;;;10.90;4.10;;;;;;;14.87;98.93;98861.72;5097921;28;20315;-64
2023/10/27 03:51:03;;;;;;;8.95;3.95;;;;;;;14.91;98.66;98862.94;5099305;28;20024;-62
2023/10/27 03:53:28;;;;;;;9.35;4.32;;;;;;;14.93;97.44;98871.53;5097349;28;20374;-63
2023/10/27 03:55:54;;;;;;;7.57;4.00;;;;;;;14.94;98.05;98873.19;5098640;28;20032;-62
2023/10/27 03:58:19;;;;;;;6.85;4.03;;;;;;;14.96;98.58;98860.47;5097316;28;20040;-63
2023/10/27 04:00:45;;;;;;;8.40;4.38;;;;;;;15.05;98.83;98867.19;5099188;28;20042;-64
2023/10/27 04:03:11;;;;;;;10.88;4.53;;;;;;;15.05;97.73;98858.38;5098629;28;20044;-63
2023/10/27 04:05:37;;;;;;;9.95;4.15;;;;;;;14.99;96.53;98860.03;5101950;28;20398;-64
2023/10/27 04:08:04;;;;;;;10.18;4.55;;;;;;;14.78;96.35;98876.31;5101892;28;20035;-64
2023/10/27 04:10:32;;;;;;;11.95;4.82;;;;;;;14.88;96.02;98868.69;5101834;28;20067;-64
2023/10/27 04:12:58;;;;;;;9.93;4.28;;;;;;;14.74;95.91;98856.44;5101715;28;20028;-63
2023/10/27 04:15:23;;;;;;;8.88;4.32;;;;;;;14.78;95.38;98855.81;5102370;28;20047;-63
2023/10/27 04:17:49;;;;;;;8.45;4.55;;;;;;;14.77;96.04;98853.34;5121727;28;20035;-62
2023/10/27 04:20:14;;;;;;;9.05;5.05;;;;;;;14.82;96.78;98856.22;5122278;28;20047;-64
2023/10/27 04:22:40;;;;;;;10.27;5.25;;;;;;;14.71;96.66;98846.22;5121806;28;20095;-65
2023/10/27 04:25:05;;;;;;;8.95;4.32;;;;;;;14.81;95.65;98842.06;5121413;28;20314;-64
2023/10/27 04:27:31;;;;;;;9.57;4.35;;;;;;;14.44;94.63;98848.09;5121196;28;20332;-64
2023/10/27 04:29:57;;;;;;;9.02;4.18;;;;;;;14.56;95.28;98846.44;5121928;28;20039;-64
2023/10/27 04:32:24;;;;;;;11.32;5.53;;;;;;;14.66;96.12;98836.19;5122299;28;20261;-63
2023/10/27 04:34:51;;;;;;;11.23;5.13;;;;;;;14.66;96.15;98842.31;5121951;28;20054;-64
2023/10/27 04:37:17;;;;;;;10.73;5.35;;;;;;;14.57;96.53;98848.91;5121087;28;20368;-64
2023/10/27 04:39:42;;;;;;;8.75;4.60;;;;;;;14.60;97.46;98853.81;5122513;28;20247;-64
2023/10/27 04:42:08;;;;;;;8.57;5.40;;;;;;;14.66;96.65;98839.66;5121147;28;20035;-62
2023/10/27 04:44:33;;;;;;;11.70;5.18;;;;;;;14.66;96.26;98847.66;5121260;28;20039;-64
2023/10/27 04:46:59;;;;;;;12.95;5.50;;;;;;;14.63;97.00;98842.75;5121195;28;20040;-63
2023/10/27 04:49:25;;;;;;;8.20;5.15;;;;;;;14.65;95.62;98839.88;5121365;28;20054;-64
2023/10/27 04:51:51;;;;;;;8.35;5.18;;;;;;;14.68;95.45;98842.94;5121116;28;20313;-64
2023/10/27 04:54:16;;;;;;;11.02;5.72;;;;;;;14.72;94.53;98842.50;5121001;28;20050;-63
2023/10/27 04:56:43;;;;;;;13.77;5.88;;;;;;;14.63;95.15;98842.75;5120491;28;20040;-63
2023/10/27 04:59:09;;;;;;;15.65;6.43;;;;;;;14.61;96.85;98844.81;5120800;28;20122;-63
2023/10/27 05:01:34;;;;;;;14.25;5.22;;;;;;;14.68;96.29;98850.94;5120792;28;20031;-65
2023/10/27 05:04:00;;;;;;;14.57;5.93;;;;;;;14.65;94.67;98861.19;5120495;28;20240;-64
2023/10/27 05:06:25;;;;;;;10.73;4.68;;;;;;;14.51;92.51;98859.56;5120725;28;20031;-63
2023/10/27 05:08:51;;;;;;;34.28;8.27;;;;;;;14.38;93.21;98855.03;5120256;28;20031;-64
2023/10/27 05:11:17;;;;;;;18.65;5.85;;;;;;;14.37;94.33;98866.72;5120586;28;20054;-64
2023/10/27 05:13:43;;;;;;;18.63;5.47;;;;;;;14.35;94.08;98860.78;5120719;28;20040;-64
2023/10/27 05:16:09;;;;;;;18.90;5.18;;;;;;;14.37;93.11;98856.06;5120755;28;20223;-64
2023/10/27 05:18:34;;;;;;;16.38;5.15;;;;;;;14.34;92.82;98853.81;5121180;28;20043;-64
2023/10/27 05:21:00;;;;;;;15.85;4.97;;;;;;;14.32;92.57;98851.38;5121481;28;20026;-64
2023/10/27 05:23:25;;;;;;;11.27;4.53;;;;;;;14.33;93.46;98858.34;5120882;28;20035;-64
2023/10/27 05:25:52;;;;;;;16.02;4.47;;;;;;;14.26;93.28;98862.03;5120381;28;20028;-64
2023/10/27 05:28:18;;;;;;;20.05;5.65;;;;;;;14.12;92.90;98863.06;5109607;28;20077;-65
2023/10/27 05:30:46;;;;;;;20.20;6.50;;;;;;;14.13;93.85;98859.38;5100005;28;20028;-64
2023/10/27 05:33:12;;;;;;;12.55;5.18;;;;;;;14.24;94.18;98850.78;5101522;28;20042;-64
2023/10/27 05:35:37;;;;;;;19.27;5.82;;;;;;;14.18;94.01;98852.41;5100934;28;20063;-64
2023/10/27 05:38:03;;;;;;;27.15;6.65;;;;;;;14.20;94.35;98862.84;5102195;28;20222;-65
2023/10/27 05:40:31;;;;;;;24.92;7.00;;;;;;;14.31;94.73;98864.88;5100845;28;20058;-64
2023/10/27 05:42:57;;;;;;;16.92;5.82;;;;;;;14.39;95.23;98873.47;5100619;28;20040;-64
2023/10/27 05:45:22;;;;;;;23.45;6.45;;;;;;;14.39;95.27;98862.81;5100803;28;20040;-64
2023/10/27 05:47:48;;;;;;;18.85;7.18;;;;;;;14.51;96.02;98872.88;5100592;28;20042;-64
2023/10/27 05:50:13;;;;;;;18.85;6.80;;;;;;;14.57;96.63;98878.22;5099759;28;20048;-64
2023/10/27 05:52:39;;;;;;;21.23;7.32;;;;;;;14.65;97.45;98882.50;5100644;28;20046;-64
2023/10/27 05:55:05;;;;;;;14.77;6.95;;;;;;;14.71;98.58;98880.84;5099242;28;20055;-64
2023/10/27 05:57:31;;;;;;;18.60;7.28;;;;;;;14.81;99.92;98870.56;5099369;28;20039;-64
2023/10/27 05:59:56;;;;;;;19.00;7.22;;;;;;;14.95;100.00;98864.97;5100262;28;20077;-63
2023/10/27 06:02:22;;;;;;;17.05;6.88;;;;;;;15.13;100.00;98871.47;5101321;28;20192;-64
2023/10/27 06:04:47;;;;;;;13.32;6.60;;;;;;;15.29;99.91;98873.63;5099128;28;20043;-64
2023/10/27 06:07:15;;;;;;;15.95;6.93;;;;;;;15.37;100.00;98864.56;5101165;28;20055;-64
2023/10/27 06:09:41;;;;;;;15.18;7.15;;;;;;;15.48;100.00;98861.22;5100429;28;20032;-63
2023/10/27 06:12:08;;;;;;;13.35;6.32;;;;;;;15.61;100.00;98858.50;5099631;28;20051;-64
2023/10/27 06:14:34;;;;;;;11.38;7.22;;;;;;;15.71;100.00;98858.84;5099632;28;20043;-63
2023/10/27 06:16:59;;;;;;;12.20;6.25;;;;;;;15.82;100.00;98855.47;5099662;28;20027;-63
2023/10/27 06:19:25;;;;;;;10.75;6.68;;;;;;;15.91;100.00;98854.19;5099137;28;20120;-64
2023/10/27 06:21:50;;;;;;;9.23;6.88;;;;;;;15.99;99.85;98865.63;5099276;28;20317;-63
2023/10/27 06:24:16;;;;;;;12.48;6.13;;;;;;;16.05;99.59;98867.41;5097747;28;20040;-64
2023/10/27 06:26:42;;;;;;;12.05;6.43;;;;;;;16.16;99.55;98864.03;5098885;28;20039;-64
2023/10/27 06:29:07;;;;;;;13.07;6.07;;;;;;;16.28;99.40;98880.97;5098470;28;20064;-63
2023/10/27 06:31:33;;;;;;;12.65;6.78;;;;;;;16.42;98.29;98879.81;5099517;28;20028;-63
2023/10/27 06:33:58;;;;;;;12.57;6.85;;;;;;;16.44;97.37;98883.06;5097750;28;20059;-63
2023/10/27 06:36:25;;;;;;;29.85;10.57;;;;;;;16.24;98.51;98877.09;5097561;28;20027;-63
2023/10/27 06:38:50;;;;;;;20.27;10.80;;;;;;;16.17;96.65;98863.00;5098248;28;20241;-63
2023/10/27 06:41:16;;;;;;;17.02;10.63;;;;;;;16.32;97.08;98874.16;5112468;28;20107;-64
2023/10/27 06:43:41;;;;;;;22.75;12.98;;;;;;;16.39;96.76;98882.09;5098774;28;20051;-64
2023/10/27 06:46:06;;;;;;;24.67;15.45;;;;;;;16.51;96.74;98873.13;5098902;28;20027;-64
2023/10/27 06:48:32;;;;;;;26.55;16.50;;;;;;;16.31;97.09;98874.38;5096891;28;20036;-64
2023/10/27 06:50:57;;;;;;;34.90;15.88;;;;;;;16.46;97.28;98869.50;5097979;28;20057;-65
2023/10/27 06:53:23;;;;;;;17.02;8.88;;;;;;;16.42;95.14;98869.13;5099543;28;20032;-65
2023/10/27 06:55:48;;;;;;;17.90;8.98;;;;;;;16.37;96.01;98876.16;5098649;28;20065;-64
2023/10/27 06:58:14;;;;;;;17.58;8.20;;;;;;;16.52;95.87;98869.44;5099012;28;20059;-64
2023/10/27 07:00:39;;;;;;;15.88;7.57;;;;;;;16.80;94.50;98860.97;5099293;28;20295;-63
2023/10/27 07:03:05;;;;;;;20.45;9.18;;;;;;;16.63;95.20;98857.19;5099626;28;20028;-62
2023/10/27 07:05:30;;;;;;;14.23;8.15;;;;;;;16.63;95.73;98856.38;5097046;28;20082;-63
2023/10/27 07:07:55;;;;;;;14.07;7.25;;;;;;;16.47;95.88;98863.13;5100028;28;20050;-63
2023/10/27 07:10:21;;;;;;;12.43;6.80;;;;;;;16.27;96.88;98861.47;5099880;28;20063;-64
2023/10/27 07:12:47;;;;;;;15.10;8.13;;;;;;;16.16;98.41;98854.16;5098897;28;20032;-63
2023/10/27 07:15:13;;;;;;;11.00;7.43;;;;;;;16.09;99.49;98855.25;5099759;28;20361;-64
2023/10/27 07:17:39;;;;;;;14.73;6.82;;;;;;;15.91;100.00;98842.69;5099442;28;20720;-63
2023/10/27 07:20:05;;;;;;;14.85;7.28;;;;;;;15.96;100.00;98837.50;5098936;28;20028;-63
2023/10/27 07:22:31;;;;;;;14.30;8.30;;;;;;;15.93;100.00;98843.28;5097821;28;20440;-63
2023/10/27 07:24:56;;;;;;;14.90;7.40;;;;;;;15.87;100.00;98841.47;5099063;28;20045;-63
2023/10/27 07:27:22;;;;;;;11.63;6.15;;;;;;;15.89;100.00;98832.22;5099325;28;20069;-63
2023/10/27 07:29:47;;;;;;;13.38;7.20;;;;;;;16.10;100.00;98824.84;5098584;28;20229;-63
2023/10/27 07:32:13;;;;;;;12.63;7.25;;;;;;;16.31;100.00;98831.63;5097161;28;20256;-62
2023/10/27 07:34:38;;;;;;;14.60;6.97;;;;;;;16.35;100.00;98844.31;5099560;28;20330;-63
2023/10/27 07:37:06;;;;;;;13.48;6.90;;;;;;;16.51;99.57;98838.41;5096095;28;20122;-63
2023/10/27 07:39:32;;;;;;;10.23;6.78;;;;;;;16.62;99.12;98842.19;5099319;28;20042;-63
2023/10/27 07:41:58;;;;;;;11.40;6.93;;;;;;;16.65;97.94;98848.97;5099630;28;20031;-63
2023/10/27 07:44:23;;;;;;;11.60;7.82;;;;;;;16.85;97.54;98842.38;5098785;28;20039;-63
2023/10/27 07:46:49;;;;;;;14.13;6.93;;;;;;;16.95;97.29;98839.19;5099207;28;20034;-62
2023/10/27 07:49:14;;;;;;;17.90;6.93;;;;;;;16.93;97.18;98841.25;5097035;28;20028;-63
2023/10/27 07:51:40;;;;;;;13.73;7.50;;;;;;;16.98;97.21;98832.56;5098308;28;20028;-63
2023/10/27 07:54:06;;;;;;;13.82;7.35;;;;;;;16.80;97.78;98830.72;5097781;28;20050;-63
2023/10/27 07:56:32;;;;;;;19.73;8.35;;;;;;;16.81;98.28;98817.13;5098120;28;20261;-62
2023/10/27 07:58:58;;;;;;;13.85;7.90;;;;;;;16.81;98.34;98813.66;5098098;28;20036;-63
2023/10/27 08:01:24;;;;;;;11.63;6.63;;;;;;;16.79;98.42;98821.06;5097264;28;20024;-63
2023/10/27 08:03:50;;;;;;;9.63;6.82;;;;;;;16.90;98.23;98828.34;5097969;28;20039;-63
2023/10/27 08:06:15;;;;;;;19.65;9.80;;;;;;;17.14;97.54;98818.56;5097093;28;20473;-63
2023/10/27 08:08:41;;;;;;;18.83;8.52;;;;;;;17.23;95.91;98822.56;5098814;28;20036;-64
2023/10/27 08:11:07;;;;;;;15.00;8.43;;;;;;;17.35;95.66;98811.88;5098696;28;20036;-63
2023/10/27 08:13:32;;;;;;;10.80;7.25;;;;;;;17.33;94.63;98819.31;5099000;28;20063;-63
2023/10/27 08:16:01;;;;;;;14.60;7.60;;;;;;;17.33;94.64;98814.78;5098622;28;20170;-64
2023/10/27 08:18:27;;;;;;;13.95;8.35;;;;;;;17.31;94.62;98803.50;5098439;28;20067;-63
2023/10/27 08:20:55;;;;;;;13.43;7.93;;;;;;;17.44;94.32;98799.81;5098254;28;20311;-64
2023/10/27 08:23:20;;;;;;;14.50;7.43;;;;;;;17.43;94.11;98804.34;5097864;28;20047;-64
2023/10/27 08:25:52;;;;;;;14.18;7.75;;;;;;;17.51;93.90;98804.00;5095559;28;20232;-64
2023/10/27 08:28:21;;;;;;;20.73;8.27;;;;;;;17.57;93.75;98802.28;5098033;28;20040;-63
2023/10/27 08:30:47;;;;;;;14.10;7.93;;;;;;;17.65;92.60;98790.41;5098431;28;20046;-63
2023/10/27 08:33:14;;;;;;;13.82;8.30;;;;;;;17.80;92.37;98793.53;5097900;28;20123;-63
2023/10/27 08:35:40;;;;;;;11.75;6.15;;;;;;;17.92;91.73;98790.84;5098375;28;20410;-63
2023/10/27 08:38:05;;;;;;;12.70;6.00;;;;;;;17.80;90.09;98789.00;5098416;28;20135;-65
2023/10/27 08:40:31;;;;;;;12.43;6.82;;;;;;;17.81;90.37;98781.78;5097293;28;20032;-65
2023/10/27 08:42:57;;;;;;;18.60;8.02;;;;;;;18.00;90.85;98790.50;5099067;28;20065;-64
2023/10/27 08:45:23;;;;;;;13.77;6.80;;;;;;;18.10;90.67;98783.50;5097567;28;20077;-63
2023/10/27 08:47:50;;;;;;;13.30;6.68;;;;;;;18.13;89.18;98790.28;5097687;28;20036;-63
2023/10/27 08:50:16;;;;;;;10.00;6.47;;;;;;;18.22;88.27;98786.19;5098430;28;20085;-65
2023/10/27 08:52:42;;;;;;;11.60;6.53;;;;;;;18.17;88.99;98784.22;5099457;28;20036;-65
2023/10/27 08:55:10;;;;;;;12.02;5.88;;;;;;;18.12;88.01;98788.63;5101325;28;20059;-65
2023/10/27 08:57:36;;;;;;;13.45;6.75;;;;;;;18.23;89.01;98793.19;5100106;28;20326;-64
2023/10/27 09:00:05;;;;;;;12.20;5.72;;;;;;;18.20;88.04;98774.88;5101327;28;20028;-62
2023/10/27 09:02:32;;;;;;;10.65;5.97;;;;;;;18.17;87.97;98775.34;5116760;28;20078;-64
2023/10/27 09:05:03;;;;;;;11.23;6.30;;;;;;;18.31;89.20;98765.22;5101458;28;20382;-64
2023/10/27 09:07:30;;;;;;;16.55;6.30;;;;;;;18.33;87.74;98766.59;5101116;28;20048;-64
2023/10/27 09:09:57;;;;;;;7.63;4.85;;;;;;;18.40;86.80;98771.81;5102417;28;20024;-64
2023/10/27 09:12:25;;;;;;;8.40;5.43;;;;;;;18.54;86.99;98770.50;5100800;28;20354;-63
2023/10/27 09:15:04;;;;;;;8.63;4.90;;;;;;;18.68;86.63;98765.72;5103484;28;20059;-64
2023/10/27 09:17:30;;;;;;;10.52;5.30;;;;;;;18.76;85.42;98750.09;5098212;28;20066;-65
2023/10/27 09:20:06;;;;;;;12.07;5.00;;;;;;;18.83;85.42;98751.84;5102383;28;20103;-64
2023/10/27 09:22:32;;;;;;;10.45;4.80;;;;;;;18.93;85.08;98743.97;5101178;28;20372;-64
2023/10/27 09:25:33;;;;;;;11.40;4.60;;;;;;;19.04;83.32;98743.91;5100802;28;20032;-64
2023/10/27 09:28:03;;;;;;;6.90;4.57;;;;;;;19.20;83.43;98753.06;5091847;28;20170;-63
2023/10/27 09:30:30;;;;;;;7.85;5.00;;;;;;;19.27;83.13;98745.66;5100942;28;20062;-64
2023/10/27 09:33:19;;;;;;;10.80;4.75;;;;;;;19.30;82.23;98741.69;5099126;28;20063;-64
2023/10/27 09:35:49;;;;;;;9.82;4.75;;;;;;;19.43;81.38;98736.00;5100179;28;20048;-65
2023/10/27 09:38:16;;;;;;;8.70;4.53;;;;;;;19.54;80.37;98739.69;5098161;28;20059;-63
2023/10/27 09:40:43;;;;;;;10.02;5.30;;;;;;;19.47;79.08;98729.06;5100857;28;20059;-63
2023/10/27 09:43:19;;;;;;;10.68;5.70;;;;;;;19.57;79.42;98725.78;5101440;28;20063;-63
2023/10/27 09:45:51;;;;;;;12.43;6.00;;;;;;;19.63;79.27;98727.47;5100389;28;20120;-63
2023/10/27 09:48:22;;;;;;;8.45;5.65;;;;;;;19.65;79.20;98728.84;5100822;28;20129;-63
2023/10/27 09:50:49;;;;;;;13.95;6.18;;;;;;;19.66;80.96;98713.56;5101482;28;20644;-63
2023/10/27 09:53:14;;;;;;;14.35;6.93;;;;;;;19.71;79.83;98721.69;5099185;28;20268;-63
2023/10/27 09:55:40;;;;;;;14.32;6.53;;;;;;;19.74;79.38;98713.94;5100823;28;20040;-63
2023/10/27 09:58:07;;;;;;;14.48;6.18;;;;;;;19.80;79.22;98711.38;5099798;28;20221;-63
2023/10/27 10:00:34;;;;;;;21.88;6.38;;;;;;;19.84;78.67;98707.13;5099794;28;20043;-63
2023/10/27 10:03:02;;;;;;;10.07;5.45;;;;;;;19.82;77.57;98701.19;5099586;28;20210;-62
2023/10/27 10:05:28;;;;;;;15.00;5.75;;;;;;;19.85;78.26;98703.38;5100529;28;20256;-63
2023/10/27 10:07:55;;;;;;;7.10;4.65;;;;;;;19.88;77.69;98700.19;5099747;28;20032;-63
2023/10/27 10:10:32;;;;;;;14.18;5.68;;;;;;;19.95;77.69;98692.78;5100475;28;20121;-63
2023/10/27 10:13:03;;;;;;;6.47;4.10;;;;;;;19.96;75.89;98697.09;5097689;28;20040;-64
2023/10/27 10:15:31;;;;;;;6.53;4.05;;;;;;;20.02;75.96;98691.53;5100916;28;20067;-62
2023/10/27 10:17:56;;;;;;;12.73;5.05;;;;;;;20.05;75.79;98680.28;5097933;28;20089;-63
2023/10/27 10:20:58;;;;;;;8.73;3.92;;;;;;;20.16;75.85;98662.41;5115554;27;20036;-63
2023/10/27 10:23:52;;;;;;;8.43;3.88;;;;;;;20.18;75.75;98646.84;5053675;28;20041;-63
2023/10/27 10:26:17;;;;;;;10.18;4.93;;;;;;;20.20;75.38;98636.66;5093089;28;20064;-63
2023/10/27 10:28:46;;;;;;;10.48;4.55;;;;;;;20.20;75.96;98649.28;5097208;28;20341;-63
2023/10/27 10:31:13;;;;;;;9.43;4.25;;;;;;;20.25;75.51;98644.78;5101949;28;20074;-63
2023/10/27 10:33:44;;;;;;;6.63;3.90;;;;;;;20.27;76.62;98639.97;5099901;28;20177;-63
2023/10/27 10:36:18;;;;;;;7.82;4.45;;;;;;;20.29;76.89;98645.91;5098282;28;20099;-64
2023/10/27 10:38:44;;;;;;;8.07;4.13;;;;;;;20.27;78.17;98644.53;5100819;28;20052;-64
2023/10/27 10:41:10;;;;;;;8.10;4.22;;;;;;;20.21;77.51;98643.66;5097807;28;20051;-64
2023/10/27 10:43:36;;;;;;;7.75;4.20;;;;;;;20.29;74.91;98640.53;5099770;28;20103;-64
2023/10/27 10:46:04;;;;;;;9.70;4.63;;;;;;;20.39;74.60;98629.09;5099173;28;20144;-64
2023/10/27 10:48:35;;;;;;;8.25;4.45;;;;;;;20.42;75.21;98625.09;5099693;28;20043;-63
2023/10/27 10:51:11;;;;;;;12.05;4.40;;;;;;;20.43;74.69;98615.97;5100346;28;20038;-63
2023/10/27 10:53:37;;;;;;;7.47;4.03;;;;;;;20.35;75.19;98614.50;5097703;28;20035;-63
2023/10/27 10:56:03;;;;;;;12.43;5.70;;;;;;;20.49;75.14;98606.91;5099218;28;20028;-64
2023/10/27 10:58:33;;;;;;;12.18;4.50;;;;;;;20.58;73.93;98605.38;5096846;28;20043;-63
2023/10/27 11:00:59;;;;;;;12.57;4.40;;;;;;;20.67;73.55;98626.16;5099799;28;20039;-64
2023/10/27 11:03:28;;;;;;;7.57;3.83;;;;;;;20.67;73.82;98628.03;5097220;28;20024;-64
2023/10/27 11:05:58;;;;;;;11.85;4.32;;;;;;;20.67;75.86;98631.56;5100034;28;20342;-63
2023/10/27 11:08:25;;;;;;;10.23;4.75;;;;;;;20.68;75.90;98627.78;5099439;28;20356;-64
2023/10/27 11:11:14;;;;;;;8.18;3.80;;;;;;;20.61;74.66;98631.75;5098246;28;20051;-64
2023/10/27 11:13:43;;;;;;;10.38;5.70;;;;;;;20.59;76.20;98632.00;5098197;28;20313;-63
2023/10/27 11:16:21;;;;;;;7.68;3.30;;;;;;;20.61;74.05;98624.50;5098230;28;20032;-63
2023/10/27 11:18:49;;;;;;;8.38;3.17;;;;;;;20.70;72.55;98624.84;5099461;28;20142;-63
2023/10/27 11:21:24;;;;;;;10.73;3.67;;;;;;;20.80;72.36;98633.00;5096681;28;20056;-63
2023/10/27 11:23:51;;;;;;;11.68;3.80;;;;;;;20.82;72.21;98630.09;5098921;28;20246;-63